createdAt,value
2019-05-30T01:30:01.595Z,0.1
2019-05-30T01:33:01.792Z,0.2
2019-05-30T01:34:01.564Z,0.3
2019-05-30T01:36:01.568Z,0.4
2019-05-30T01:37:01.522Z,0.5
2019-05-30T01:39:01.740Z,0.6
2019-05-30T01:40:01.861Z,0.7
2019-05-30T01:42:01.803Z,0.8
2019-05-30T01:43:02.062Z,0.9
2019-05-30T01:44:01.893Z,1.1
2019-05-30T01:45:02.414Z,1.2
2019-05-30T01:46:02.096Z,1.3
2019-05-30T01:48:02.873Z,1.5
2019-05-30T01:49:02.227Z,1.6
2019-05-30T01:50:02.503Z,1.7
2019-05-30T01:51:02.289Z,1.9
2019-05-30T01:52:02.343Z,2.1
2019-05-30T01:53:02.511Z,2.3
2019-05-30T01:54:01.101Z,2.6
2019-05-30T01:55:01.104Z,2.9
2019-05-30T01:56:01.134Z,3.3
2019-05-30T01:57:01.131Z,3.7
2019-05-30T01:58:01.818Z,4.1
2019-05-30T01:59:01.103Z,4.5
2019-05-30T02:00:01.130Z,5.1
2019-05-30T02:01:16.685Z,5.7
2019-05-30T02:02:01.108Z,6.3
2019-05-30T02:03:01.255Z,7.0
2019-05-30T02:04:01.189Z,7.8
2019-05-30T02:05:01.331Z,8.7
2019-05-30T02:06:01.121Z,9.7
2019-05-30T02:07:01.130Z,10.7
2019-05-30T02:08:01.253Z,12.0
2019-05-30T02:09:01.180Z,13.3
2019-05-30T02:10:01.194Z,14.8
2019-05-30T02:11:01.332Z,16.4
2019-05-30T02:12:01.271Z,18.1
2019-05-30T02:13:01.259Z,20.0
2019-05-30T02:14:01.532Z,21.9
2019-05-30T02:15:01.540Z,23.9
2019-05-30T02:16:01.548Z,25.9
2019-05-30T02:17:03.575Z,27.9
2019-05-30T02:18:01.526Z,29.9
2019-05-30T02:19:01.619Z,31.8
2019-05-30T02:20:01.638Z,33.7
2019-05-30T02:21:02.100Z,35.5
2019-05-30T02:22:01.641Z,37.4
2019-05-30T02:23:03.148Z,39.3
2019-05-30T02:24:01.804Z,41.4
2019-05-30T02:25:01.959Z,43.7
2019-05-30T02:26:02.179Z,46.3
2019-05-30T02:27:02.195Z,49.1
2019-05-30T02:28:02.054Z,52.0
2019-05-30T02:30:03.246Z,55.5
2019-05-30T02:31:02.900Z,59.5
2019-05-30T02:32:02.935Z,63.9
2019-05-30T02:33:02.795Z,68.8
2019-05-30T02:34:02.906Z,74.3
2019-05-30T02:35:03.218Z,80.3
2019-05-30T02:36:03.164Z,86.5
2019-05-30T02:37:02.946Z,92.9
2019-05-30T02:38:02.907Z,99.6
2019-05-30T02:39:02.941Z,106.6
2019-05-30T02:40:03.628Z,114.1
2019-05-30T02:41:01.341Z,122.2
2019-05-30T02:42:01.099Z,130.8
2019-05-30T02:43:01.355Z,139.9
2019-05-30T02:44:02.972Z,149.8
2019-05-30T02:45:01.480Z,160.1
2019-05-30T02:46:01.160Z,171.2
2019-05-30T02:47:01.477Z,183.5
2019-05-30T02:48:01.290Z,196.9
2019-05-30T02:49:02.595Z,211.7
2019-05-30T02:50:01.593Z,227.9
2019-05-30T02:51:01.108Z,246.0
2019-05-30T02:52:02.516Z,266.3
2019-05-30T02:53:01.233Z,288.9
2019-05-30T02:54:01.577Z,313.6
2019-05-30T02:55:01.915Z,340.2
2019-05-30T02:56:01.390Z,368.3
2019-05-30T02:57:01.499Z,397.7
2019-05-30T02:58:01.455Z,428.5
2019-05-30T02:59:01.542Z,460.7
2019-05-30T03:00:01.879Z,494.6
2019-05-30T03:01:01.834Z,530.0
2019-05-30T03:02:04.429Z,566.3
2019-05-30T03:03:01.846Z,602.9
2019-05-30T03:04:01.790Z,639.7
2019-05-30T03:05:01.552Z,675.5
2019-05-30T03:06:01.757Z,708.9
2019-05-30T03:07:01.961Z,739.1
2019-05-30T03:08:01.940Z,766.4
2019-05-30T03:09:01.819Z,791.7
2019-05-30T03:10:02.572Z,816.2
2019-05-30T03:11:02.838Z,841.7
2019-05-30T03:12:01.992Z,869.7
2019-05-30T03:13:01.832Z,900.6
2019-05-30T03:14:02.106Z,933.9
2019-05-30T03:15:02.417Z,969.3
2019-05-30T03:16:02.127Z,1006.9
2019-05-30T03:17:02.546Z,1047.9
2019-05-30T03:18:02.243Z,1093.2
2019-05-30T03:19:01.876Z,1144.2
2019-05-30T03:20:03.692Z,1204.3
2019-05-30T03:21:01.105Z,1276.9
2019-05-30T03:22:03.275Z,1362.9
2019-05-30T03:23:03.052Z,1462.0
2019-05-30T03:24:02.646Z,1572.2
2019-05-30T03:25:02.927Z,1689.8
2019-05-30T03:26:02.525Z,1811.9
2019-05-30T03:27:02.517Z,1936.7
2019-05-30T03:28:02.675Z,2060.6
2019-05-30T03:29:02.652Z,2178.1
2019-05-30T03:30:04.244Z,2289.3
2019-05-30T03:31:04.267Z,2400.5
2019-05-30T03:32:38.451Z,2519.4
2019-05-30T03:33:09.678Z,2647.1
2019-05-30T03:34:04.437Z,2784.7
2019-05-30T03:35:04.437Z,2935.4
2019-05-30T03:36:04.792Z,3100.1
2019-05-30T03:37:01.104Z,3268.3
2019-05-30T03:38:01.102Z,3430.3
2019-05-30T03:39:03.161Z,3590.5
2019-05-30T03:40:01.103Z,3760.3
2019-05-30T03:41:01.104Z,3950.5
2019-05-30T03:42:01.102Z,4165.4
2019-05-30T03:43:01.106Z,4387.5
2019-05-30T03:44:01.385Z,4600.5
2019-05-30T03:45:03.921Z,4807.5
2019-05-30T03:46:01.108Z,5016.7
2019-05-30T03:47:01.105Z,5230.3
2019-05-30T03:48:01.109Z,5451.2
2019-05-30T03:49:01.373Z,5682.9
2019-05-30T03:50:01.109Z,5908.1
2019-05-30T03:51:01.112Z,6116.1
2019-05-30T03:53:01.222Z,6316.6
2019-05-30T03:54:01.250Z,6519.0
2019-05-30T03:55:01.123Z,6724.3
2019-05-30T03:56:01.095Z,6929.4
2019-05-30T03:57:01.094Z,7108.7
2019-05-30T03:58:01.093Z,7235.5
2019-05-30T03:59:01.402Z,7326.1
2019-05-30T04:00:01.157Z,7436.6
2019-05-30T04:01:01.097Z,7597.7
2019-05-30T04:02:01.099Z,7790.9
2019-05-30T04:03:01.103Z,7998.7
2019-05-30T04:04:01.250Z,8233.2
2019-05-30T04:05:01.098Z,8487.6
2019-05-30T04:06:01.101Z,8734.9
2019-05-30T04:07:01.098Z,8944.9
2019-05-30T04:08:01.095Z,9112.8
2019-05-30T04:09:01.248Z,9263.0
2019-05-30T04:10:01.098Z,9416.5
2019-05-30T04:11:01.099Z,9588.1
2019-05-30T04:12:01.103Z,9807.2
2019-05-30T04:13:01.100Z,10085.4
2019-05-30T04:14:01.281Z,10407.3
2019-05-30T04:15:01.119Z,10742.3
2019-05-30T04:16:01.102Z,11075.1
2019-05-30T04:17:01.105Z,11410.8
2019-05-30T04:18:01.101Z,11740.5
2019-05-30T04:19:01.256Z,12031.0
2019-05-30T04:20:01.116Z,12293.4
2019-05-30T04:21:01.100Z,12612.3
2019-05-30T04:22:01.136Z,13083.1
2019-05-30T04:23:01.107Z,13751.3
2019-05-30T04:24:01.253Z,14597.5
2019-05-30T04:25:01.104Z,15552.9
2019-05-30T04:26:01.280Z,16516.5
2019-05-30T04:27:01.106Z,17410.2
2019-05-30T04:28:01.109Z,18218.7
2019-05-30T04:29:01.342Z,18958.0
2019-05-30T04:30:01.111Z,19623.4
2019-05-30T04:31:01.109Z,20197.4
2019-05-30T04:32:01.116Z,20681.9
2019-05-30T04:33:16.612Z,21115.3
2019-05-30T04:34:01.283Z,21539.6
2019-05-30T04:35:01.110Z,21947.6
2019-05-30T04:36:01.106Z,22293.8
2019-05-30T04:37:01.107Z,22526.7
2019-05-30T04:39:01.248Z,22615.4
2019-05-30T04:40:01.100Z,22585.5
2019-05-30T04:41:01.097Z,22521.3
2019-05-30T04:42:01.093Z,22509.0
2019-05-30T04:43:01.105Z,22602.1
2019-05-30T04:44:01.240Z,22841.5
2019-05-30T04:45:01.107Z,23262.2
2019-05-30T04:46:01.095Z,23879.4
2019-05-30T04:47:01.094Z,24679.3
2019-05-30T04:48:01.101Z,25601.4
2019-05-30T04:49:01.243Z,26514.8
2019-05-30T04:50:01.097Z,27293.6
2019-05-30T04:51:01.093Z,27898.3
2019-05-30T04:52:01.099Z,28373.9
2019-05-30T04:53:01.094Z,28792.7
2019-05-30T04:54:01.242Z,29195.5
2019-05-30T04:55:01.100Z,29523.1
2019-05-30T04:56:03.168Z,29674.6
2019-05-30T04:57:01.133Z,29672.1
2019-05-30T04:58:01.094Z,29622.1
2019-05-30T04:59:01.252Z,29594.4
2019-05-30T05:00:01.110Z,29627.4
2019-05-30T05:01:01.096Z,29766.8
2019-05-30T05:02:01.095Z,30053.8
2019-05-30T05:03:01.096Z,30494.4
2019-05-30T05:04:01.265Z,31142.9
2019-05-30T05:05:01.100Z,32062.4
2019-05-30T05:06:01.107Z,33220.0
2019-05-30T05:07:01.120Z,34483.3
2019-05-30T05:08:01.114Z,35711.4
2019-05-30T05:09:01.260Z,36799.9
2019-05-30T05:10:01.097Z,37775.4
2019-05-30T05:11:01.099Z,38748.5
2019-05-30T05:12:01.120Z,39753.9
2019-05-30T05:13:01.104Z,40722.8
2019-05-30T05:14:01.245Z,41471.9
2019-05-30T05:15:01.104Z,41765.0
2019-05-30T05:16:01.098Z,41600.0
2019-05-30T05:17:01.097Z,41115.1
2019-05-30T05:18:02.270Z,40441.2
2019-05-30T05:19:01.270Z,39596.3
2019-05-30T05:20:01.101Z,38626.5
2019-05-30T05:21:01.103Z,37711.2
2019-05-30T05:22:01.100Z,36898.0
2019-05-30T05:23:01.105Z,36220.0
2019-05-30T05:24:01.251Z,35710.1
2019-05-30T05:25:01.104Z,35348.2
2019-05-30T05:26:01.622Z,35061.5
2019-05-30T05:27:01.102Z,34795.9
2019-05-30T05:28:01.101Z,34519.5
2019-05-30T05:29:01.270Z,34265.6
2019-05-30T05:30:01.105Z,34134.9
2019-05-30T05:31:01.103Z,34138.9
2019-05-30T05:32:01.123Z,34228.7
2019-05-30T05:33:01.102Z,34347.0
2019-05-30T05:34:01.294Z,34522.7
2019-05-30T05:35:01.107Z,34771.1
2019-05-30T05:36:01.104Z,35027.3
2019-05-30T05:37:01.109Z,35279.1
2019-05-30T05:38:01.103Z,35422.3
2019-05-30T05:39:03.494Z,35449.6
2019-05-30T05:40:01.108Z,35347.7
2019-05-30T05:41:01.110Z,35252.8
2019-05-30T05:42:01.109Z,35279.4
2019-05-30T05:43:01.114Z,35564.1
2019-05-30T05:44:01.268Z,36090.6
2019-05-30T05:45:02.146Z,36752.8
2019-05-30T05:46:01.106Z,37406.9
2019-05-30T05:47:01.143Z,37993.1
2019-05-30T05:48:01.105Z,38604.5
2019-05-30T05:49:01.253Z,39339.4
2019-05-30T05:50:01.147Z,40099.4
2019-05-30T05:51:01.111Z,40779.4
2019-05-30T05:53:01.192Z,41336.5
2019-05-30T05:54:01.251Z,41917.3
2019-05-30T05:55:01.100Z,42481.5
2019-05-30T05:56:01.094Z,43070.8
2019-05-30T05:57:01.122Z,43708.1
2019-05-30T05:58:04.087Z,44313.7
2019-05-30T05:59:01.244Z,44714.5
2019-05-30T06:00:01.122Z,45036.1
2019-05-30T06:01:01.093Z,45559.7
2019-05-30T06:02:01.091Z,46437.6
2019-05-30T06:03:01.115Z,47659.9
2019-05-30T06:04:12.400Z,49132.1
2019-05-30T06:05:01.096Z,50473.3
2019-05-30T06:06:01.115Z,51704.6
2019-05-30T06:07:01.098Z,52885.4
2019-05-30T06:08:01.095Z,54110.4
2019-05-30T06:09:01.244Z,55366.9
2019-05-30T06:10:01.099Z,56723.4
2019-05-30T06:11:01.116Z,58174.1
2019-05-30T06:12:01.131Z,59581.9
2019-05-30T06:13:01.100Z,60903.7
2019-05-30T06:14:01.323Z,62181.3
2019-05-30T06:15:01.206Z,63371.5
2019-05-30T06:16:01.098Z,64365.1
2019-05-30T06:17:01.136Z,65084.3
2019-05-30T06:18:01.103Z,65481.3
2019-05-30T06:19:01.268Z,65535.0
2019-05-30T06:30:01.098Z,65535.0
2019-05-30T06:45:01.098Z,65535.0
2019-05-30T07:00:01.106Z,65535.0
2019-05-30T07:15:01.328Z,65535.0
2019-05-30T07:30:01.095Z,65535.0
2019-05-30T07:45:01.380Z,65535.0
2019-05-30T08:00:01.249Z,65535.0
2019-05-30T08:15:01.105Z,65535.0
2019-05-30T08:30:01.399Z,65535.0
2019-05-30T08:45:01.370Z,65535.0
2019-05-30T09:00:01.442Z,65535.0
2019-05-30T09:15:02.645Z,65535.0
2019-05-30T09:27:01.100Z,65486.1
2019-05-30T09:28:02.251Z,65069.7
2019-05-30T09:30:01.255Z,65069.7
2019-05-30T09:33:01.237Z,64339.9
2019-05-30T09:34:01.105Z,64104.5
2019-05-30T09:36:12.452Z,63667.3
2019-05-30T09:43:01.222Z,63668.5
2019-05-30T09:44:01.095Z,64084.9
2019-05-30T09:45:01.242Z,64084.9
2019-05-30T09:49:01.098Z,64814.7
2019-05-30T09:50:03.773Z,65050.1
2019-05-30T09:51:01.098Z,65487.3
2019-05-30T09:53:01.166Z,65310.1
2019-05-30T09:54:01.098Z,64935.7
2019-05-30T09:58:01.098Z,64983.4
2019-05-30T10:00:01.314Z,64983.4
2019-05-30T10:08:01.395Z,65160.6
2019-05-30T10:09:01.100Z,65535.0
2019-05-30T10:11:01.121Z,65264.1
2019-05-30T10:12:01.098Z,64569.1
2019-05-30T10:13:01.251Z,63493.7
2019-05-30T10:15:01.112Z,63493.7
2019-05-30T10:26:01.379Z,63764.6
2019-05-30T10:27:01.114Z,64459.6
2019-05-30T10:28:01.102Z,65535.0
2019-05-30T10:30:01.114Z,65535.0
2019-05-30T10:45:01.300Z,65535.0
2019-05-30T10:55:01.333Z,65392.0
2019-05-30T11:00:01.315Z,65392.0
2019-05-30T11:10:01.322Z,65535.0
2019-05-30T11:15:01.313Z,65535.0
2019-05-30T11:30:01.254Z,65535.0
2019-05-30T11:45:01.301Z,65535.0
2019-05-30T12:00:01.264Z,65535.0
2019-05-30T12:08:01.309Z,64810.2
2019-05-30T12:09:01.258Z,64297.6
2019-05-30T12:10:01.341Z,62972.5
2019-05-30T12:11:01.463Z,61856.4
2019-05-30T12:12:01.488Z,61632.6
2019-05-30T12:13:01.649Z,60342.3
2019-05-30T12:14:01.473Z,59025.0
2019-05-30T12:15:01.585Z,57530.4
2019-05-30T12:16:01.928Z,56243.7
2019-05-30T12:17:01.480Z,54590.9
2019-05-30T12:18:02.425Z,52934.4
2019-05-30T12:19:01.881Z,51832.5
2019-05-30T12:20:01.869Z,50528.0
2019-05-30T12:23:02.215Z,51252.8
2019-05-30T12:24:02.373Z,51765.4
2019-05-30T12:25:02.572Z,52733.9
2019-05-30T12:26:02.243Z,53643.5
2019-05-30T12:27:02.308Z,53614.7
2019-05-30T12:28:04.102Z,54469.1
2019-05-30T12:29:02.219Z,55786.3
2019-05-30T12:30:02.543Z,57280.9
2019-05-30T12:31:05.985Z,58567.7
2019-05-30T12:32:02.157Z,60220.4
2019-05-30T12:33:02.468Z,61876.9
2019-05-30T12:34:02.517Z,62978.8
2019-05-30T12:35:01.101Z,64040.4
2019-05-30T12:36:01.105Z,63761.9
2019-05-30T12:37:01.131Z,63159.4
2019-05-30T12:38:04.888Z,62970.8
2019-05-30T12:39:01.107Z,62631.6
2019-05-30T12:40:01.103Z,62988.2
2019-05-30T12:41:02.886Z,62665.3
2019-05-30T12:42:01.333Z,61713.1
2019-05-30T12:43:03.032Z,61255.1
2019-05-30T12:44:01.412Z,60218.7
2019-05-30T12:45:05.189Z,58681.1
2019-05-30T12:46:01.306Z,57213.3
2019-05-30T12:47:01.365Z,56825.7
2019-05-30T12:48:01.370Z,56678.8
2019-05-30T12:49:01.551Z,56007.5
2019-05-30T12:50:01.409Z,55107.2
2019-05-30T12:52:01.092Z,55385.7
2019-05-30T12:53:02.108Z,54422.7
2019-05-30T12:54:01.089Z,54611.3
2019-05-30T12:55:03.033Z,54078.2
2019-05-30T12:56:01.095Z,52253.1
2019-05-30T12:57:01.089Z,51090.8
2019-05-30T12:58:01.244Z,50552.1
2019-05-30T12:59:01.209Z,49896.9
2019-05-30T13:00:01.158Z,49058.9
2019-05-30T13:01:01.090Z,49105.4
2019-05-30T13:02:01.280Z,49077.4
2019-05-30T13:03:03.081Z,48159.7
2019-05-30T13:04:01.193Z,47020.9
2019-05-30T13:05:01.093Z,47068.2
2019-05-30T13:06:01.208Z,47741.9
2019-05-30T13:07:01.329Z,47741.7
2019-05-30T13:08:17.264Z,48841.5
2019-05-30T13:09:01.187Z,48220.9
2019-05-30T13:10:01.394Z,48714.8
2019-05-30T13:11:01.680Z,49624.9
2019-05-30T13:12:01.098Z,50676.8
2019-05-30T13:13:01.886Z,52420.3
2019-05-30T13:14:01.099Z,53672.9
2019-05-30T13:15:01.904Z,55027.7
2019-05-30T13:16:04.521Z,55359.9
2019-05-30T13:17:01.818Z,55394.1
2019-05-30T13:18:01.274Z,55425.6
2019-05-30T13:19:02.192Z,55111.3
2019-05-30T13:20:01.488Z,54586.1
2019-05-30T13:21:02.132Z,53946.0
2019-05-30T13:22:01.435Z,52370.7
2019-05-30T13:23:02.570Z,50925.3
2019-05-30T13:24:01.761Z,49332.6
2019-05-30T13:25:01.862Z,47530.7
2019-05-30T13:26:01.800Z,46612.1
2019-05-30T13:27:01.778Z,45478.5
2019-05-30T13:28:04.714Z,44217.4
2019-05-30T13:29:02.277Z,42472.3
2019-05-30T13:30:02.234Z,40884.1
2019-05-30T13:31:02.215Z,40412.9
2019-05-30T13:32:02.511Z,40438.2
2019-05-30T13:33:01.245Z,39761.1
2019-05-30T13:34:07.130Z,39910.5
2019-05-30T13:35:01.450Z,39336.5
2019-05-30T13:36:01.106Z,39569.3
2019-05-30T13:37:01.100Z,40501.4
2019-05-30T13:38:01.456Z,41439.3
2019-05-30T13:39:01.216Z,42838.9
2019-05-30T13:40:01.421Z,44488.7
2019-05-30T13:41:01.495Z,45729.5
2019-05-30T13:42:01.620Z,46122.8
2019-05-30T13:43:01.880Z,46045.8
2019-05-30T13:44:03.185Z,47244.1
2019-05-30T13:45:02.096Z,48416.3
2019-05-30T13:46:02.853Z,49078.1
2019-05-30T13:47:02.415Z,50514.5
2019-05-30T13:48:02.315Z,51343.5
2019-05-30T13:49:02.326Z,51198.6
2019-05-30T13:50:01.104Z,51366.7
2019-05-30T13:51:01.113Z,51071.5
2019-05-30T13:52:01.104Z,50014.7
2019-05-30T13:53:01.251Z,49603.6
2019-05-30T13:54:01.144Z,49043.7
2019-05-30T13:55:01.951Z,47758.1
2019-05-30T13:56:01.458Z,46495.9
2019-05-30T13:57:01.636Z,46469.8
2019-05-30T13:59:01.773Z,46053.9
2019-05-30T14:00:01.997Z,45276.7
2019-05-30T14:01:05.170Z,45430.7
2019-05-30T14:02:01.858Z,45517.4
2019-05-30T14:03:02.242Z,44912.5
2019-05-30T14:04:03.057Z,45579.5
2019-05-30T14:05:02.203Z,46318.3
2019-05-30T14:06:02.936Z,46812.9
2019-05-30T14:07:02.234Z,46358.1
2019-05-30T14:08:02.607Z,46107.6
2019-05-30T14:09:02.360Z,45554.1
2019-05-30T14:10:02.335Z,45155.9
2019-05-30T14:11:02.427Z,45013.6
2019-05-30T14:12:02.295Z,45036.3
2019-05-30T14:13:02.438Z,44649.8
2019-05-30T14:14:02.634Z,44256.9
2019-05-30T14:15:03.140Z,44197.2
2019-05-30T14:16:01.104Z,43483.5
2019-05-30T14:17:01.120Z,43294.6
2019-05-30T14:18:01.102Z,43614.5
2019-05-30T14:19:01.305Z,44016.6
2019-05-30T14:20:01.099Z,43114.7
2019-05-30T14:21:01.789Z,42488.6
2019-05-30T14:22:01.246Z,43025.5
2019-05-30T14:23:01.269Z,44287.0
2019-05-30T14:24:01.372Z,46224.7
2019-05-30T14:25:01.317Z,47884.6
2019-05-30T14:26:01.263Z,49843.0
2019-05-30T14:27:01.374Z,51675.4
2019-05-30T14:28:01.459Z,53467.9
2019-05-30T14:29:02.321Z,55614.8
2019-05-30T14:30:01.107Z,57295.1
2019-05-30T14:31:01.108Z,58790.3
2019-05-30T14:32:02.260Z,59860.9
2019-05-30T14:33:02.072Z,59785.7
2019-05-30T14:34:02.065Z,58764.4
2019-05-30T14:35:02.337Z,59444.3
2019-05-30T14:36:04.515Z,60551.3
2019-05-30T14:37:02.266Z,60683.3
2019-05-30T14:38:02.425Z,61372.5
2019-05-30T14:39:02.584Z,61241.1
2019-05-30T14:40:01.127Z,61353.1
2019-05-30T14:42:01.108Z,60783.5
2019-05-30T14:43:01.106Z,60500.7
2019-05-30T14:45:01.325Z,60500.7
2019-05-30T14:49:01.091Z,60780.4
2019-05-30T14:50:01.245Z,61854.4
2019-05-30T14:51:01.114Z,62933.3
2019-05-30T14:52:01.092Z,63512.7
2019-05-30T14:53:01.091Z,64470.8
2019-05-30T14:55:01.247Z,64602.2
2019-05-30T14:58:01.101Z,65171.7
2019-05-30T14:59:01.115Z,65149.3
2019-05-30T15:00:01.480Z,65083.5
2019-05-30T15:01:01.103Z,64588.5
2019-05-30T15:02:01.103Z,63526.1
2019-05-30T15:03:01.097Z,63010.3
2019-05-30T15:04:01.097Z,62272.7
2019-05-30T15:06:01.268Z,61276.4
2019-05-30T15:08:01.130Z,60395.1
2019-05-30T15:09:14.932Z,59572.7
2019-05-30T15:13:01.311Z,58646.9
2019-05-30T15:14:01.109Z,58171.0
2019-05-30T15:15:01.137Z,58236.9
2019-05-30T15:16:01.105Z,58731.8
2019-05-30T15:17:01.103Z,59748.2
2019-05-30T15:18:01.281Z,59968.6
2019-05-30T15:19:01.104Z,60021.7
2019-05-30T15:20:01.105Z,58796.3
2019-05-30T15:21:01.100Z,59167.1
2019-05-30T15:22:01.101Z,58408.5
2019-05-30T15:23:01.279Z,59024.9
2019-05-30T15:24:01.104Z,59295.3
2019-05-30T15:25:01.100Z,58188.5
2019-05-30T15:26:01.103Z,56471.4
2019-05-30T15:27:01.111Z,55319.1
2019-05-30T15:28:01.284Z,55178.1
2019-05-30T15:29:01.112Z,55127.1
2019-05-30T15:30:01.104Z,54257.1
2019-05-30T15:32:01.099Z,54303.2
2019-05-30T15:33:01.284Z,54453.3
2019-05-30T15:34:01.104Z,55218.3
2019-05-30T15:35:01.104Z,56443.7
2019-05-30T15:36:01.109Z,57069.2
2019-05-30T15:37:01.104Z,57827.8
2019-05-30T15:38:01.288Z,58092.7
2019-05-30T15:39:01.104Z,58644.7
2019-05-30T15:40:01.106Z,59751.4
2019-05-30T15:41:01.103Z,61468.5
2019-05-30T15:42:01.105Z,62620.9
2019-05-30T15:43:01.282Z,63687.7
2019-05-30T15:44:01.103Z,64519.7
2019-05-30T15:45:01.113Z,65389.7
2019-05-30T15:48:01.280Z,65535.0
2019-05-30T16:00:01.111Z,65535.0
2019-05-30T16:11:01.097Z,65237.7
2019-05-30T16:12:01.245Z,64817.5
2019-05-30T16:13:01.100Z,64528.1
2019-05-30T16:14:01.101Z,64026.0
2019-05-30T16:15:01.098Z,63833.9
2019-05-30T16:16:01.100Z,63681.2
2019-05-30T16:17:02.146Z,63524.5
2019-05-30T16:19:14.943Z,63068.1
2019-05-30T16:20:01.127Z,62233.9
2019-05-30T16:26:01.166Z,62531.2
2019-05-30T16:27:01.315Z,62951.4
2019-05-30T16:28:01.106Z,63240.8
2019-05-30T16:29:01.102Z,63742.9
2019-05-30T16:30:01.126Z,63935.0
2019-05-30T16:31:01.108Z,64087.7
2019-05-30T16:32:01.288Z,64244.5
2019-05-30T16:34:01.169Z,64700.8
2019-05-30T16:35:01.135Z,65535.0
2019-05-30T16:50:01.102Z,65535.0
2019-05-30T17:00:01.385Z,65535.0
2019-05-30T17:07:01.332Z,65045.4
2019-05-30T17:08:01.100Z,64327.3
2019-05-30T17:09:01.142Z,63411.3
2019-05-30T17:10:01.106Z,62516.7
2019-05-30T17:11:01.110Z,61553.9
2019-05-30T17:12:01.252Z,60381.7
2019-05-30T17:13:01.102Z,59259.1
2019-05-30T17:14:01.102Z,58240.1
2019-05-30T17:15:01.105Z,57304.7
2019-05-30T17:16:01.100Z,56417.8
2019-05-30T17:17:02.956Z,55474.7
2019-05-30T17:18:01.104Z,54346.7
2019-05-30T17:19:01.103Z,53011.7
2019-05-30T17:20:01.117Z,51622.9
2019-05-30T17:21:01.103Z,50088.3
2019-05-30T17:22:01.321Z,49122.7
2019-05-30T17:23:01.105Z,48325.7
2019-05-30T17:24:01.104Z,47850.5
2019-05-30T17:25:01.125Z,47656.0
2019-05-30T17:26:01.103Z,47861.1
2019-05-30T17:27:01.379Z,48392.9
2019-05-30T17:28:01.109Z,48889.5
2019-05-30T17:29:01.107Z,48809.5
2019-05-30T17:30:01.104Z,48390.7
2019-05-30T17:31:01.105Z,47839.4
2019-05-30T17:32:01.258Z,47733.9
2019-05-30T17:33:01.105Z,47745.5
2019-05-30T17:34:01.112Z,47841.3
2019-05-30T17:35:01.107Z,47860.3
2019-05-30T17:36:01.106Z,48154.5
2019-05-30T17:37:01.325Z,47759.5
2019-05-30T17:38:01.107Z,47181.2
2019-05-30T17:39:01.175Z,46647.9
2019-05-30T17:40:01.107Z,45641.6
2019-05-30T17:42:01.239Z,44396.1
2019-05-30T17:43:01.091Z,43096.2
2019-05-30T17:44:01.093Z,41631.5
2019-05-30T17:45:01.137Z,40672.3
2019-05-30T17:46:01.094Z,39921.7
2019-05-30T17:47:01.241Z,39242.1
2019-05-30T17:48:15.479Z,38281.9
2019-05-30T17:49:01.059Z,37484.5
2019-05-30T17:50:01.101Z,36945.3
2019-05-30T17:51:01.092Z,36455.8
2019-05-30T17:52:01.247Z,35608.8
2019-05-30T17:53:01.099Z,35229.4
2019-05-30T17:54:02.197Z,35085.7
2019-05-30T17:55:01.094Z,34797.2
2019-05-30T17:56:01.093Z,34589.3
2019-05-30T17:57:01.306Z,34248.5
2019-05-30T17:58:01.097Z,33918.6
2019-05-30T17:59:01.091Z,33813.7
2019-05-30T18:00:01.095Z,33840.4
2019-05-30T18:01:01.136Z,33964.2
2019-05-30T18:02:01.243Z,34008.4
2019-05-30T18:03:01.093Z,34144.9
2019-05-30T18:04:01.095Z,34201.6
2019-05-30T18:05:01.095Z,33730.0
2019-05-30T18:06:01.090Z,33057.9
2019-05-30T18:07:01.247Z,32438.6
2019-05-30T18:08:01.102Z,31770.9
2019-05-30T18:09:01.095Z,31127.5
2019-05-30T18:10:01.096Z,30529.4
2019-05-30T18:11:01.093Z,29975.5
2019-05-30T18:12:01.273Z,29300.5
2019-05-30T18:13:01.224Z,28596.3
2019-05-30T18:14:01.098Z,27741.7
2019-05-30T18:15:01.095Z,26679.4
2019-05-30T18:16:02.030Z,25500.5
2019-05-30T18:17:01.237Z,24344.6
2019-05-30T18:18:01.094Z,23028.0
2019-05-30T18:19:01.098Z,21718.7
2019-05-30T18:20:01.102Z,20705.8
2019-05-30T18:21:01.099Z,19771.7
2019-05-30T18:22:01.279Z,18930.6
2019-05-30T18:23:01.102Z,18267.7
2019-05-30T18:24:01.109Z,17521.9
2019-05-30T18:25:01.111Z,16662.0
2019-05-30T18:26:01.099Z,15798.6
2019-05-30T18:27:01.251Z,15106.7
2019-05-30T18:28:01.101Z,14422.6
2019-05-30T18:29:01.105Z,13871.8
2019-05-30T18:30:01.100Z,13341.3
2019-05-30T18:31:01.099Z,12911.9
2019-05-30T18:32:03.448Z,12560.8
2019-05-30T18:33:01.101Z,12171.2
2019-05-30T18:34:01.107Z,11700.9
2019-05-30T18:35:01.103Z,11263.4
2019-05-30T18:36:01.098Z,11002.3
2019-05-30T18:37:01.256Z,10917.9
2019-05-30T18:38:01.929Z,11021.0
2019-05-30T18:39:01.099Z,11232.3
2019-05-30T18:40:01.104Z,11568.9
2019-05-30T18:41:10.629Z,12001.8
2019-05-30T18:42:01.249Z,12427.0
2019-05-30T18:43:01.113Z,12737.1
2019-05-30T18:44:01.099Z,12880.1
2019-05-30T18:45:01.103Z,12898.4
2019-05-30T18:46:01.131Z,12833.7
2019-05-30T18:47:01.253Z,12738.6
2019-05-30T18:48:01.102Z,12621.6
2019-05-30T18:49:01.108Z,12531.6
2019-05-30T18:50:01.102Z,12495.9
2019-05-30T18:51:01.132Z,12454.7
2019-05-30T18:52:01.258Z,12296.5
2019-05-30T18:53:01.105Z,11910.0
2019-05-30T18:54:01.105Z,11447.4
2019-05-30T18:55:01.119Z,10862.9
2019-05-30T18:56:01.133Z,10186.1
2019-05-30T18:57:01.251Z,9474.3
2019-05-30T18:58:01.201Z,8766.3
2019-05-30T18:59:01.136Z,8120.7
2019-05-30T19:01:01.093Z,7579.7
2019-05-30T19:02:01.280Z,7058.7
2019-05-30T19:03:01.087Z,6553.5
2019-05-30T19:04:01.209Z,6082.7
2019-05-30T19:05:01.115Z,5625.3
2019-05-30T19:06:01.091Z,5176.8
2019-05-30T19:07:01.237Z,4774.2
2019-05-30T19:08:01.209Z,4396.9
2019-05-30T19:09:01.092Z,4082.9
2019-05-30T19:10:01.094Z,3787.4
2019-05-30T19:11:01.091Z,3517.4
2019-05-30T19:12:01.308Z,3293.5
2019-05-30T19:13:04.004Z,3096.9
2019-05-30T19:14:01.091Z,2964.3
2019-05-30T19:15:01.103Z,2878.8
2019-05-30T19:16:01.093Z,2830.5
2019-05-30T19:17:01.242Z,2807.1
2019-05-30T19:18:01.094Z,2798.0
2019-05-30T19:19:01.131Z,2781.9
2019-05-30T19:20:01.093Z,2790.5
2019-05-30T19:21:01.093Z,2791.5
2019-05-30T19:22:01.314Z,2769.1
2019-05-30T19:23:01.100Z,2729.5
2019-05-30T19:24:01.100Z,2670.4
2019-05-30T19:25:01.097Z,2618.4
2019-05-30T19:26:01.103Z,2591.6
2019-05-30T19:27:01.247Z,2582.7
2019-05-30T19:28:01.097Z,2588.6
2019-05-30T19:29:01.103Z,2568.3
2019-05-30T19:30:01.096Z,2538.9
2019-05-30T19:31:01.097Z,2490.4
2019-05-30T19:32:01.243Z,2420.3
2019-05-30T19:33:01.098Z,2351.9
2019-05-30T19:34:01.098Z,2275.6
2019-05-30T19:35:01.098Z,2170.3
2019-05-30T19:36:01.104Z,2071.7
2019-05-30T19:37:01.250Z,1982.3
2019-05-30T19:38:01.101Z,1902.3
2019-05-30T19:39:01.130Z,1833.4
2019-05-30T19:40:01.101Z,1766.6
2019-05-30T19:41:01.099Z,1677.5
2019-05-30T19:42:01.262Z,1567.5
2019-05-30T19:43:01.103Z,1444.8
2019-05-30T19:44:02.067Z,1341.7
2019-05-30T19:45:01.105Z,1254.2
2019-05-30T19:46:01.105Z,1195.1
2019-05-30T19:47:01.267Z,1152.9
2019-05-30T19:48:01.106Z,1088.7
2019-05-30T19:49:01.101Z,1015.7
2019-05-30T19:50:01.454Z,959.4
2019-05-30T19:52:01.254Z,898.3
2019-05-30T19:53:01.091Z,832.4
2019-05-30T19:54:01.088Z,772.8
2019-05-30T19:55:01.089Z,709.9
2019-05-30T19:56:01.090Z,650.8
2019-05-30T19:57:01.300Z,603.2
2019-05-30T19:58:01.090Z,557.3
2019-05-30T19:59:01.090Z,513.1
2019-05-30T20:00:01.094Z,468.9
2019-05-30T20:01:01.088Z,416.8
2019-05-30T20:02:01.306Z,362.0
2019-05-30T20:03:01.091Z,313.4
2019-05-30T20:04:01.087Z,275.3
2019-05-30T20:05:06.098Z,245.6
2019-05-30T20:06:01.093Z,221.5
2019-05-30T20:07:01.353Z,203.7
2019-05-30T20:08:01.089Z,188.7
2019-05-30T20:09:01.093Z,171.6
2019-05-30T20:10:01.995Z,155.5
2019-05-30T20:11:01.088Z,141.8
2019-05-30T20:12:03.910Z,129.0
2019-05-30T20:13:01.096Z,117.8
2019-05-30T20:14:01.093Z,108.3
2019-05-30T20:15:01.089Z,100.1
2019-05-30T20:16:01.091Z,92.7
2019-05-30T20:17:01.241Z,84.0
2019-05-30T20:18:01.091Z,76.7
2019-05-30T20:19:01.096Z,70.6
2019-05-30T20:20:01.093Z,64.7
2019-05-30T20:21:01.129Z,58.3
2019-05-30T20:22:01.252Z,52.2